createdAt,value
2023-11-19T00:00:18.008Z,8.50
2023-11-19T00:02:44.933Z,8.60
2023-11-19T00:05:15.103Z,8.60
2023-11-19T00:07:45.290Z,8.70
2023-11-19T00:10:13.478Z,8.70
2023-11-19T00:12:46.038Z,8.70
2023-11-19T00:15:16.029Z,8.70
2023-11-19T00:17:46.993Z,8.70
2023-11-19T00:20:15.052Z,8.70
2023-11-19T00:25:14.889Z,8.70
2023-11-19T00:27:41.569Z,8.80
2023-11-19T00:30:11.490Z,8.80
2023-11-19T00:32:40.264Z,8.80
2023-11-19T00:35:08.387Z,8.80
2023-11-19T00:37:35.211Z,8.80
2023-11-19T00:40:01.869Z,8.80
2023-11-19T00:42:28.511Z,8.80
2023-11-19T00:44:56.432Z,8.70
2023-11-19T00:47:23.219Z,8.70
2023-11-19T00:49:49.966Z,8.70
2023-11-19T00:52:17.696Z,8.80
2023-11-19T00:54:44.643Z,8.80
2023-11-19T00:57:11.317Z,8.80
2023-11-19T00:59:38.458Z,8.70
2023-11-19T01:02:07.180Z,8.70
2023-11-19T01:04:37.840Z,8.70
2023-11-19T01:07:05.329Z,8.70
2023-11-19T01:09:36.619Z,8.70
2023-11-19T01:12:04.060Z,8.70
2023-11-19T01:14:31.420Z,8.70
2023-11-19T01:16:58.870Z,8.70
2023-11-19T01:19:25.869Z,8.70
2023-11-19T01:21:52.931Z,8.70
2023-11-19T01:24:19.688Z,8.70
2023-11-19T01:26:46.630Z,8.70
2023-11-19T01:29:17.494Z,8.80
2023-11-19T01:31:46.289Z,8.70
2023-11-19T01:34:13.143Z,8.80
2023-11-19T01:36:40.348Z,8.80
2023-11-19T01:39:07.863Z,8.80
2023-11-19T01:41:38.035Z,8.80
2023-11-19T01:44:06.649Z,8.80
2023-11-19T01:46:34.349Z,8.80
2023-11-19T01:49:03.709Z,8.60
2023-11-19T01:51:31.085Z,8.90
2023-11-19T01:53:59.244Z,8.90
2023-11-19T01:56:27.670Z,8.80
2023-11-19T01:58:56.401Z,9.00
2023-11-19T02:01:23.367Z,9.00
2023-11-19T02:03:50.356Z,9.00
2023-11-19T02:06:17.412Z,9.00
2023-11-19T02:08:44.811Z,9.10
2023-11-19T02:11:13.070Z,9.10
2023-11-19T02:13:42.338Z,9.10
2023-11-19T02:16:12.164Z,9.10
2023-11-19T02:18:39.420Z,9.10
2023-11-19T02:21:06.592Z,9.10
2023-11-19T02:23:33.842Z,9.20
2023-11-19T02:26:18.693Z,9.10
2023-11-19T02:28:45.628Z,9.10
2023-11-19T02:31:12.556Z,9.20
2023-11-19T02:33:40.158Z,9.20
2023-11-19T02:36:09.385Z,9.20
2023-11-19T02:38:37.036Z,9.20
2023-11-19T02:41:07.805Z,9.20
2023-11-19T02:43:35.515Z,9.20
2023-11-19T02:48:39.160Z,9.20
2023-11-19T02:51:07.593Z,9.20
2023-11-19T02:53:34.250Z,9.20
2023-11-19T02:56:12.582Z,9.20
2023-11-19T02:58:40.164Z,9.20
2023-11-19T03:01:24.134Z,9.20
2023-11-19T03:03:57.981Z,9.10
2023-11-19T03:06:25.496Z,9.20
2023-11-19T03:08:52.169Z,9.20
2023-11-19T03:11:18.868Z,9.20
2023-11-19T03:13:45.492Z,9.20
2023-11-19T03:16:12.377Z,9.20
2023-11-19T03:18:40.190Z,9.20
2023-11-19T03:21:09.151Z,9.20
2023-11-19T03:23:36.399Z,9.20
2023-11-19T03:26:06.800Z,9.20
2023-11-19T03:28:33.874Z,9.20
2023-11-19T03:31:00.743Z,9.20
2023-11-19T03:33:29.060Z,9.20
2023-11-19T03:35:57.545Z,9.30
2023-11-19T03:38:25.970Z,9.30
2023-11-19T03:40:52.923Z,9.20
2023-11-19T03:43:22.474Z,9.30
2023-11-19T03:45:49.313Z,9.20
2023-11-19T03:48:20.137Z,9.20
2023-11-19T03:50:46.957Z,9.20
2023-11-19T03:53:13.746Z,9.30
2023-11-19T03:55:40.384Z,9.30
2023-11-19T03:58:07.055Z,9.20
2023-11-19T04:00:33.845Z,9.10
2023-11-19T04:03:00.826Z,9.10
2023-11-19T04:05:27.679Z,9.10
2023-11-19T04:07:54.384Z,9.00
2023-11-19T04:10:21.619Z,9.00
2023-11-19T04:12:48.385Z,9.00
2023-11-19T04:15:15.774Z,9.10
2023-11-19T04:17:42.544Z,9.00
2023-11-19T04:20:13.276Z,9.00
2023-11-19T04:22:40.332Z,9.00
2023-11-19T04:25:07.451Z,9.00
2023-11-19T04:27:34.204Z,9.00
2023-11-19T04:30:02.846Z,9.10
2023-11-19T04:32:29.985Z,9.10
2023-11-19T04:34:57.038Z,9.10
2023-11-19T04:37:23.831Z,9.20
2023-11-19T04:39:50.673Z,9.20
2023-11-19T04:42:18.193Z,9.20
2023-11-19T04:44:45.382Z,9.20
2023-11-19T04:47:12.150Z,9.20
2023-11-19T04:49:43.981Z,9.20
2023-11-19T04:52:10.720Z,9.20
2023-11-19T04:54:45.376Z,9.20
2023-11-19T04:57:12.189Z,9.20
2023-11-19T04:59:39.474Z,9.20
2023-11-19T05:02:06.542Z,9.20
2023-11-19T05:04:33.431Z,9.30
2023-11-19T05:07:02.334Z,9.20
2023-11-19T05:09:29.064Z,9.20
2023-11-19T05:11:55.781Z,9.00
2023-11-19T05:14:23.173Z,9.00
2023-11-19T05:16:50.204Z,8.90
2023-11-19T05:19:17.333Z,8.80
2023-11-19T05:21:44.861Z,8.70
2023-11-19T05:24:13.006Z,8.70
2023-11-19T05:26:39.876Z,8.70
2023-11-19T05:29:06.575Z,8.70
2023-11-19T05:31:36.270Z,8.70
2023-11-19T05:34:03.761Z,8.70
2023-11-19T05:36:31.562Z,8.70
2023-11-19T05:38:58.205Z,8.60
2023-11-19T05:41:25.340Z,8.60
2023-11-19T05:43:52.645Z,8.60
2023-11-19T05:46:20.664Z,8.60
2023-11-19T05:48:48.440Z,8.60
2023-11-19T05:51:18.297Z,8.60
2023-11-19T05:53:48.669Z,8.60
2023-11-19T05:56:16.798Z,8.50
2023-11-19T05:58:45.694Z,8.50
2023-11-19T06:01:12.454Z,8.40
2023-11-19T06:03:39.445Z,8.40
2023-11-19T06:06:06.658Z,8.40
2023-11-19T06:08:33.565Z,8.40
2023-11-19T06:11:02.115Z,8.40
2023-11-19T06:13:28.809Z,8.40
2023-11-19T06:15:55.484Z,8.50
2023-11-19T06:18:22.238Z,8.40
2023-11-19T06:20:49.233Z,8.40
2023-11-19T06:23:16.090Z,8.40
2023-11-19T06:25:43.162Z,8.40
2023-11-19T06:28:10.632Z,8.40
2023-11-19T06:30:37.414Z,8.50
2023-11-19T06:33:04.723Z,8.50
2023-11-19T06:35:37.123Z,8.50
2023-11-19T06:38:05.626Z,8.60
2023-11-19T06:40:39.039Z,8.60
2023-11-19T06:43:09.541Z,8.60
2023-11-19T06:45:37.974Z,8.70
2023-11-19T06:48:05.760Z,8.70
2023-11-19T06:50:35.493Z,8.70
2023-11-19T06:53:02.235Z,8.70
2023-11-19T06:55:29.051Z,8.60
2023-11-19T06:57:55.841Z,8.60
2023-11-19T07:00:23.607Z,8.60
2023-11-19T07:02:51.373Z,8.60
2023-11-19T07:05:18.202Z,8.60
2023-11-19T07:07:44.941Z,8.50
2023-11-19T07:10:11.693Z,8.50
2023-11-19T07:12:38.558Z,8.40
2023-11-19T07:15:06.553Z,8.30
2023-11-19T07:17:33.298Z,8.20
2023-11-19T07:20:01.428Z,8.20
2023-11-19T07:22:30.556Z,8.20
2023-11-19T07:24:57.418Z,8.10
2023-11-19T07:27:25.332Z,8.00
2023-11-19T07:29:52.203Z,8.00
2023-11-19T07:32:19.195Z,8.00
2023-11-19T07:34:45.970Z,8.10
2023-11-19T07:37:13.365Z,8.20
2023-11-19T07:39:42.016Z,8.30
2023-11-19T07:42:10.240Z,8.40
2023-11-19T07:44:37.764Z,8.40
2023-11-19T07:47:04.926Z,8.40
2023-11-19T07:49:32.050Z,8.50
2023-11-19T07:51:58.925Z,8.50
2023-11-19T07:54:25.632Z,8.50
2023-11-19T07:56:52.501Z,8.50
2023-11-19T07:59:19.206Z,8.60
2023-11-19T08:01:45.973Z,8.60
2023-11-19T08:04:12.878Z,8.70
2023-11-19T08:06:39.882Z,8.70
2023-11-19T08:09:07.588Z,8.80
2023-11-19T08:11:34.881Z,8.90
2023-11-19T08:14:01.637Z,8.90
2023-11-19T08:16:28.340Z,9.00
2023-11-19T08:18:55.006Z,9.10
2023-11-19T08:21:23.728Z,9.20
2023-11-19T08:23:50.420Z,9.50
2023-11-19T08:26:20.371Z,9.70
2023-11-19T08:28:48.590Z,9.80
2023-11-19T08:31:15.345Z,9.90
2023-11-19T08:33:42.072Z,10.00
2023-11-19T08:36:09.270Z,10.10
2023-11-19T08:38:36.033Z,10.40
2023-11-19T08:41:02.754Z,10.50
2023-11-19T08:43:32.101Z,10.70
2023-11-19T08:45:58.746Z,10.50
2023-11-19T08:48:27.024Z,10.40
2023-11-19T08:50:53.705Z,10.40
2023-11-19T08:53:20.350Z,10.60
2023-11-19T08:55:47.257Z,10.70
2023-11-19T08:58:14.020Z,11.20
2023-11-19T09:00:41.557Z,11.50
2023-11-19T09:03:10.679Z,11.50
2023-11-19T09:05:38.185Z,11.50
2023-11-19T09:08:05.415Z,11.50
2023-11-19T09:10:32.618Z,11.70
2023-11-19T09:12:59.330Z,11.50
2023-11-19T09:15:26.259Z,11.40
2023-11-19T09:17:53.011Z,11.30
2023-11-19T09:20:19.848Z,11.20
2023-11-19T09:22:47.058Z,11.10
2023-11-19T09:25:18.138Z,11.10
2023-11-19T09:27:45.326Z,11.10
2023-11-19T09:30:12.548Z,11.20
2023-11-19T09:32:39.313Z,11.30
2023-11-19T09:35:07.390Z,11.20
2023-11-19T09:37:34.044Z,11.20
2023-11-19T09:40:00.778Z,11.30
2023-11-19T09:42:27.923Z,11.50
2023-11-19T09:44:57.314Z,12.20
2023-11-19T09:47:24.580Z,13.00
2023-11-19T09:49:51.691Z,13.50
2023-11-19T09:54:45.493Z,14.20
2023-11-19T09:57:14.461Z,14.60
2023-11-19T09:59:41.780Z,15.30
2023-11-19T10:02:10.076Z,15.90
2023-11-19T10:04:38.217Z,16.40
2023-11-19T10:07:05.310Z,16.60
2023-11-19T10:09:32.011Z,16.80
2023-11-19T10:11:58.655Z,17.30
2023-11-19T10:14:25.538Z,17.60
2023-11-19T10:16:52.358Z,17.70
2023-11-19T10:19:22.327Z,18.30
2023-11-19T10:21:49.353Z,18.50
2023-11-19T10:24:30.161Z,18.60
2023-11-19T10:26:58.332Z,19.30
2023-11-19T10:29:25.280Z,19.60
2023-11-19T10:32:23.470Z,19.70
2023-11-19T10:34:45.553Z,19.30
2023-11-19T10:37:36.384Z,19.80
2023-11-19T10:40:06.137Z,20.30
2023-11-19T10:42:32.932Z,19.90
2023-11-19T10:44:59.623Z,19.40
2023-11-19T10:49:56.866Z,17.50
2023-11-19T10:52:24.713Z,16.20
2023-11-19T10:54:52.998Z,15.50
2023-11-19T10:57:22.845Z,15.10
2023-11-19T10:59:53.526Z,14.70
2023-11-19T11:02:25.597Z,14.20
2023-11-19T11:04:53.127Z,14.00
2023-11-19T11:07:29.961Z,13.80
2023-11-19T11:10:07.169Z,13.70
2023-11-19T11:12:37.811Z,13.70
2023-11-19T11:15:06.883Z,13.60
2023-11-19T11:17:35.385Z,13.70
2023-11-19T11:20:03.896Z,13.70
2023-11-19T11:22:41.537Z,13.90
2023-11-19T11:25:27.255Z,14.00
2023-11-19T11:28:06.546Z,14.30
2023-11-19T11:30:40.625Z,14.40
2023-11-19T11:33:22.781Z,14.50
2023-11-19T11:36:14.995Z,14.40
2023-11-19T11:38:42.896Z,14.20
2023-11-19T11:41:26.316Z,14.00
2023-11-19T11:44:01.233Z,13.90
2023-11-19T11:46:34.369Z,13.80
2023-11-19T11:49:02.960Z,13.60
2023-11-19T11:51:45.338Z,13.40
2023-11-19T11:54:26.446Z,13.30
2023-11-19T11:57:14.407Z,13.10
2023-11-19T11:59:51.901Z,13.10
2023-11-19T12:02:22.146Z,13.00
2023-11-19T12:04:51.043Z,13.00
2023-11-19T12:07:23.069Z,12.90
2023-11-19T12:10:10.199Z,12.80
2023-11-19T12:12:39.211Z,12.80
2023-11-19T12:15:12.911Z,12.80
2023-11-19T12:17:53.157Z,12.60
2023-11-19T12:20:36.143Z,12.50
2023-11-19T12:23:07.206Z,12.40
2023-11-19T12:25:35.678Z,12.20
2023-11-19T12:28:05.612Z,12.10
2023-11-19T12:30:32.653Z,12.00
2023-11-19T12:33:00.223Z,11.90
2023-11-19T12:35:27.559Z,11.80
2023-11-19T12:37:54.360Z,11.70
2023-11-19T12:40:25.891Z,11.70
2023-11-19T12:42:54.581Z,11.80
2023-11-19T12:45:22.730Z,11.90
2023-11-19T12:47:50.636Z,11.90
2023-11-19T12:50:21.410Z,11.90
2023-11-19T12:52:58.554Z,11.90
2023-11-19T12:55:29.879Z,11.80
2023-11-19T12:57:59.358Z,11.80
2023-11-19T13:00:27.732Z,11.80
2023-11-19T13:02:58.531Z,11.80
2023-11-19T13:05:35.266Z,11.70
2023-11-19T13:08:09.493Z,11.60
2023-11-19T13:10:54.578Z,11.60
2023-11-19T13:13:21.568Z,11.60
2023-11-19T13:15:48.456Z,11.50
2023-11-19T13:18:17.964Z,11.50
2023-11-19T13:20:44.862Z,11.40
2023-11-19T13:23:13.541Z,11.40
2023-11-19T13:25:40.306Z,11.30
2023-11-19T13:28:07.069Z,11.30
2023-11-19T13:30:33.934Z,11.20
2023-11-19T13:33:02.264Z,11.20
2023-11-19T13:35:29.333Z,11.00
2023-11-19T13:37:56.017Z,11.00
2023-11-19T13:40:23.628Z,10.90
2023-11-19T13:42:50.397Z,10.80
2023-11-19T13:45:19.344Z,10.70
2023-11-19T13:47:47.448Z,10.70
2023-11-19T13:50:15.608Z,10.70
2023-11-19T13:52:45.924Z,10.70
2023-11-19T13:55:13.057Z,10.70
2023-11-19T13:57:41.132Z,10.70
2023-11-19T14:00:19.941Z,10.70
2023-11-19T14:02:48.511Z,10.80
2023-11-19T14:05:18.272Z,10.80
2023-11-19T14:07:45.397Z,10.80
2023-11-19T14:10:12.501Z,10.80
2023-11-19T14:12:39.346Z,10.90
2023-11-19T14:15:07.525Z,10.90
2023-11-19T14:17:35.190Z,11.00
2023-11-19T14:20:02.538Z,10.90
2023-11-19T14:22:29.921Z,10.80
2023-11-19T14:24:56.628Z,10.90
2023-11-19T14:27:23.503Z,10.90
2023-11-19T14:29:50.146Z,11.00
2023-11-19T14:32:17.270Z,10.90
2023-11-19T14:34:44.816Z,10.90
2023-11-19T14:37:12.579Z,10.80
2023-11-19T14:39:39.236Z,10.70
2023-11-19T14:42:06.476Z,10.70
2023-11-19T14:44:33.670Z,10.60
2023-11-19T14:47:00.533Z,10.60
2023-11-19T14:49:28.607Z,10.60
2023-11-19T14:51:55.353Z,10.60
2023-11-19T14:54:22.124Z,10.60
2023-11-19T14:56:48.866Z,10.60
2023-11-19T14:59:15.541Z,10.60
2023-11-19T15:01:42.248Z,10.50
2023-11-19T15:04:09.055Z,10.50
2023-11-19T15:06:35.877Z,10.50
2023-11-19T15:09:03.024Z,10.40
2023-11-19T15:11:30.065Z,10.40
2023-11-19T15:13:57.234Z,10.40
2023-11-19T15:16:33.258Z,10.40
2023-11-19T15:19:00.717Z,10.30
2023-11-19T15:21:30.607Z,10.30
2023-11-19T15:23:59.366Z,10.30
2023-11-19T15:26:26.754Z,10.30
2023-11-19T15:28:57.138Z,10.30
2023-11-19T15:31:24.349Z,10.30
2023-11-19T15:33:51.813Z,10.30
2023-11-19T15:36:18.820Z,10.20
2023-11-19T15:41:15.626Z,10.20
2023-11-19T15:43:42.678Z,10.10
2023-11-19T15:46:10.374Z,10.10
2023-11-19T15:48:37.175Z,10.10
2023-11-19T15:51:04.177Z,10.10
2023-11-19T15:53:34.324Z,10.10
2023-11-19T15:56:02.677Z,10.10
2023-11-19T15:58:30.440Z,10.00
2023-11-19T16:00:57.523Z,10.00
2023-11-19T16:03:24.388Z,9.90
2023-11-19T16:06:01.456Z,9.80
2023-11-19T16:08:34.095Z,9.80
2023-11-19T16:11:00.821Z,9.70
2023-11-19T16:13:27.573Z,9.70
2023-11-19T16:15:54.765Z,9.70
2023-11-19T16:18:21.585Z,9.70
2023-11-19T16:20:48.483Z,9.60
2023-11-19T16:23:17.190Z,9.60
2023-11-19T16:25:44.054Z,9.60
2023-11-19T16:28:10.770Z,9.70
2023-11-19T16:30:48.470Z,9.70
2023-11-19T16:33:21.315Z,9.80
2023-11-19T16:35:58.487Z,9.90
2023-11-19T16:38:27.604Z,9.90
2023-11-19T16:40:54.308Z,9.90
2023-11-19T16:43:21.059Z,9.80
2023-11-19T16:45:47.869Z,9.80
2023-11-19T16:48:14.727Z,9.80
2023-11-19T16:50:42.256Z,9.80
2023-11-19T16:53:09.746Z,9.80
2023-11-19T16:55:36.543Z,9.80
2023-11-19T16:58:03.330Z,9.80
2023-11-19T17:00:30.076Z,9.80
2023-11-19T17:03:00.174Z,9.70
2023-11-19T17:05:27.277Z,9.70
2023-11-19T17:07:54.425Z,9.70
2023-11-19T17:10:21.163Z,9.80
2023-11-19T17:12:47.893Z,9.90
2023-11-19T17:15:14.619Z,10.00
2023-11-19T17:17:41.480Z,10.00
2023-11-19T17:20:10.150Z,10.20
2023-11-19T17:22:39.477Z,10.30
2023-11-19T17:25:07.618Z,10.40
2023-11-19T17:27:34.760Z,10.40
2023-11-19T17:30:05.750Z,10.30
2023-11-19T17:32:35.230Z,10.40
2023-11-19T17:35:02.086Z,10.30
2023-11-19T17:37:28.857Z,10.40
2023-11-19T17:39:55.598Z,10.30
2023-11-19T17:42:26.545Z,10.40
2023-11-19T17:44:54.281Z,10.30
2023-11-19T17:47:21.883Z,10.30
2023-11-19T17:49:48.654Z,10.30
2023-11-19T17:52:15.335Z,10.20
2023-11-19T17:54:42.219Z,10.20
2023-11-19T17:57:08.926Z,10.30
2023-11-19T17:59:35.732Z,10.30
2023-11-19T18:02:03.344Z,10.30
2023-11-19T18:04:30.418Z,10.30
2023-11-19T18:06:57.277Z,10.20
2023-11-19T18:09:23.919Z,10.30
2023-11-19T18:11:57.330Z,10.30
2023-11-19T18:14:28.704Z,10.40
2023-11-19T18:16:55.457Z,10.30
2023-11-19T18:19:22.419Z,10.40
2023-11-19T18:21:50.001Z,10.50
2023-11-19T18:24:18.482Z,10.60
2023-11-19T18:26:45.345Z,10.50
2023-11-19T18:29:12.313Z,10.60
2023-11-19T18:31:39.178Z,10.50
2023-11-19T18:34:06.153Z,10.50
2023-11-19T18:36:37.796Z,10.50
2023-11-19T18:39:06.568Z,10.60
2023-11-19T18:41:33.328Z,10.70
2023-11-19T18:44:00.078Z,10.70
2023-11-19T18:46:26.808Z,10.60
2023-11-19T18:48:53.523Z,10.60
2023-11-19T18:51:20.367Z,10.70
2023-11-19T18:53:47.746Z,10.70
2023-11-19T18:56:15.281Z,10.60
2023-11-19T18:58:42.075Z,10.60
2023-11-19T19:01:09.996Z,10.70
2023-11-19T19:03:37.462Z,10.60
2023-11-19T19:06:05.819Z,10.70
2023-11-19T19:08:36.796Z,10.70
2023-11-19T19:11:03.620Z,10.90
2023-11-19T19:13:31.009Z,10.90
2023-11-19T19:15:57.850Z,10.90
2023-11-19T19:18:25.024Z,10.90
2023-11-19T19:20:52.916Z,10.90
2023-11-19T19:23:19.652Z,10.90
2023-11-19T19:25:46.358Z,10.90
2023-11-19T19:30:49.309Z,10.90
2023-11-19T19:33:16.168Z,10.90
2023-11-19T19:35:43.016Z,10.90
2023-11-19T19:38:10.734Z,11.00
2023-11-19T19:40:37.585Z,11.00
2023-11-19T19:43:05.355Z,11.00
2023-11-19T19:45:33.272Z,11.00
2023-11-19T19:48:00.289Z,11.00
2023-11-19T19:50:34.600Z,11.00
2023-11-19T19:53:01.307Z,10.90
2023-11-19T19:55:28.044Z,10.90
2023-11-19T19:57:55.658Z,10.90
2023-11-19T20:00:23.973Z,10.90
2023-11-19T20:02:51.580Z,10.90
2023-11-19T20:05:20.307Z,10.90
2023-11-19T20:07:48.813Z,10.90
2023-11-19T20:10:15.909Z,10.90
2023-11-19T20:12:43.053Z,10.80
2023-11-19T20:15:12.238Z,10.80
2023-11-19T20:17:39.279Z,10.80
2023-11-19T20:20:07.572Z,10.80
2023-11-19T20:22:35.401Z,10.90
2023-11-19T20:25:02.369Z,10.90
2023-11-19T20:27:29.312Z,10.80
2023-11-19T20:29:56.321Z,10.80
2023-11-19T20:32:23.326Z,10.80
2023-11-19T20:34:50.012Z,10.90
2023-11-19T20:37:16.671Z,10.90
2023-11-19T20:39:43.385Z,11.00
2023-11-19T20:42:10.074Z,11.00
2023-11-19T20:44:37.677Z,11.00
2023-11-19T20:47:06.291Z,10.90
2023-11-19T20:49:33.140Z,10.90
2023-11-19T20:52:00.945Z,10.90
2023-11-19T20:56:57.320Z,10.90
2023-11-19T20:59:24.553Z,11.00
2023-11-19T21:01:51.270Z,11.00
2023-11-19T21:04:18.100Z,11.00
2023-11-19T21:09:17.167Z,11.00
2023-11-19T21:11:44.289Z,11.00
2023-11-19T21:14:11.633Z,11.00
2023-11-19T21:16:38.611Z,11.10
2023-11-19T21:19:05.487Z,11.10
2023-11-19T21:21:32.752Z,11.10
2023-11-19T21:24:00.444Z,11.10
2023-11-19T21:26:27.159Z,11.10
2023-11-19T21:28:54.260Z,11.10
2023-11-19T21:31:21.090Z,11.10
2023-11-19T21:33:47.861Z,11.10
2023-11-19T21:36:14.668Z,11.10
2023-11-19T21:38:41.406Z,11.10
2023-11-19T21:41:08.256Z,11.10
2023-11-19T21:43:35.336Z,11.10
2023-11-19T21:46:02.378Z,11.10
2023-11-19T21:48:29.275Z,11.10
2023-11-19T21:50:57.208Z,11.00
2023-11-19T21:53:24.346Z,11.10
2023-11-19T21:55:51.175Z,11.10
2023-11-19T21:58:17.933Z,11.10
2023-11-19T22:00:44.871Z,11.10
2023-11-19T22:03:11.773Z,11.10
2023-11-19T22:05:38.738Z,11.00
2023-11-19T22:10:35.226Z,11.10
2023-11-19T22:13:02.014Z,11.10
2023-11-19T22:15:28.772Z,11.10
2023-11-19T22:17:55.610Z,11.10
2023-11-19T22:20:25.698Z,11.00
2023-11-19T22:22:53.009Z,11.00
2023-11-19T22:25:20.491Z,11.00
2023-11-19T22:27:47.501Z,11.00
2023-11-19T22:30:14.699Z,11.00
2023-11-19T22:32:41.773Z,10.90
2023-11-19T22:35:09.404Z,11.00
2023-11-19T22:37:36.206Z,11.00
2023-11-19T22:40:03.912Z,11.00
2023-11-19T22:42:30.660Z,11.00
2023-11-19T22:44:57.481Z,10.90
2023-11-19T22:47:24.327Z,10.90
2023-11-19T22:49:51.792Z,10.90
2023-11-19T22:52:18.578Z,10.90
2023-11-19T22:54:45.269Z,11.00
2023-11-19T22:57:11.999Z,11.00
2023-11-19T22:59:38.675Z,11.00
2023-11-19T23:02:07.237Z,11.00
2023-11-19T23:04:34.093Z,11.00
2023-11-19T23:07:02.216Z,10.90
2023-11-19T23:09:29.184Z,10.90
2023-11-19T23:11:55.898Z,10.90
2023-11-19T23:14:24.007Z,10.90
2023-11-19T23:16:50.803Z,10.90
2023-11-19T23:19:17.518Z,10.90
2023-11-19T23:21:45.649Z,10.90
2023-11-19T23:24:12.535Z,10.90
2023-11-19T23:26:39.377Z,10.90
2023-11-19T23:29:13.323Z,10.90
2023-11-19T23:31:42.783Z,10.90
2023-11-19T23:34:09.576Z,10.90
2023-11-19T23:36:36.338Z,10.90
2023-11-19T23:39:03.224Z,10.80
2023-11-19T23:41:32.386Z,10.80
2023-11-19T23:43:59.954Z,10.90
2023-11-19T23:46:27.275Z,10.80
2023-11-19T23:51:26.318Z,10.80
2023-11-19T23:53:54.093Z,10.80
2023-11-19T23:56:21.069Z,10.80
2023-11-19T23:58:53.349Z,10.70
